»·PEaware :: WAT847 KBOI-KSEA

WAT847 :: KBOI-KSEA

FLIGHT INFORMATION

Flight Status: Arrived
Operator:
Walker Air Transport
More flights by this operator :: More flights under this callsign
Pilot: Charlton B. (28558)
Aircraft: BOEING 767-300
(B763)
More flights by this aircraft type
Origin: KBOI Boise Air Terminal/Gowen
United States
Destination: KSEA Seattle-Tacoma Intl
United States
More flights between these airports :: More routes between these airports
Route: BOI3 BOI PREIS PDT CHINS4
File this flight plan on PilotEdge
Remarks: RMK / SIMBRIEF
Altitude:
(Current/Filed)
34,000ft
Speed:
(Current/Filed)
477kts
Departed: 15-Jan-22 11:57 AM
Arrived: 15-Jan-22 01:14 PM
Distance/Time
Traveled:
346nm/1:17
Distance/Time
To Go:
Arrived

Flight Plot

Page will automatically refresh every two minutes.

Flight plan parsing failed; only flown route is shown


Map Options




Map Legend


Flown Route
Filed Route
Departure Airport
Arrival Airport
Navaid (VOR, NDB)
Fix

Horizontal Profiles

Position Reports

Time Latitude Longitude Heading Altitude Ground
Speed
15-Jan-22 11:19 43.567825 -116.224156 100 2851ft 0kts
15-Jan-22 11:20 43.567825 -116.224156 100 2851ft 0kts
15-Jan-22 11:21 43.567825 -116.224156 100 2851ft 0kts
15-Jan-22 11:22 43.567825 -116.224156 100 2851ft 0kts
15-Jan-22 11:23 43.567825 -116.224156 100 2851ft 0kts
15-Jan-22 11:24 43.567825 -116.224156 100 2851ft 0kts
15-Jan-22 11:25 43.567825 -116.224156 100 2851ft 0kts
15-Jan-22 11:26 43.567825 -116.224156 100 2851ft 0kts
15-Jan-22 11:27 43.567825 -116.224156 100 2851ft 0kts
15-Jan-22 11:28 43.567825 -116.224156 100 2851ft 0kts
15-Jan-22 11:29 43.567825 -116.224156 100 2851ft 0kts
15-Jan-22 11:30 43.567825 -116.224156 100 2851ft 0kts
15-Jan-22 11:31 43.567825 -116.224156 100 2851ft 0kts
15-Jan-22 11:32 43.567825 -116.224156 100 2851ft 0kts
15-Jan-22 11:33 43.567825 -116.224156 100 2851ft 0kts
15-Jan-22 11:34 43.567825 -116.224156 100 2851ft 0kts
15-Jan-22 11:35 43.567825 -116.224156 100 2851ft 0kts
15-Jan-22 11:36 43.567825 -116.224156 100 2851ft 0kts
15-Jan-22 11:37 43.567825 -116.224156 100 2851ft 0kts
15-Jan-22 11:38 43.567825 -116.224156 100 2851ft 0kts
15-Jan-22 11:39 43.567825 -116.224156 100 2851ft 0kts
15-Jan-22 11:40 43.567825 -116.224156 100 2851ft 0kts
15-Jan-22 11:41 43.567825 -116.224156 100 2851ft 0kts
15-Jan-22 11:42 43.567825 -116.224156 100 2851ft 0kts
15-Jan-22 11:43 43.567825 -116.224156 100 2851ft 0kts
15-Jan-22 11:44 43.567825 -116.224156 100 2851ft 0kts
15-Jan-22 11:45 43.567825 -116.224156 100 2851ft 0kts
15-Jan-22 11:46 43.567825 -116.224156 100 2851ft 0kts
15-Jan-22 11:47 43.567825 -116.224155 100 2851ft 0kts
15-Jan-22 11:48 43.567825 -116.224155 100 2851ft 0kts
15-Jan-22 11:49 43.567825 -116.224155 100 2851ft 0kts
15-Jan-22 11:50 43.567606 -116.225711 294 2851ft 12kts
15-Jan-22 11:51 43.569552 -116.231385 294 2841ft 18kts
15-Jan-22 11:52 43.571075 -116.236022 224 2832ft 0kts
15-Jan-22 11:53 43.571075 -116.236022 224 2832ft 0kts
15-Jan-22 11:54 43.571075 -116.236022 224 2832ft 0kts
15-Jan-22 11:55 43.569830 -116.235802 121 2835ft 0kts
15-Jan-22 11:56 43.560872 -116.209321 113 3252ft 170kts
15-Jan-22 11:57 43.541709 -116.145330 111 5827ft 226kts
15-Jan-22 11:58 43.515433 -116.055183 111 8648ft 268kts
15-Jan-22 11:59 43.489081 -115.955984 103 11754ft 287kts
15-Jan-22 12:00 43.532957 -115.882488 349 14979ft 279kts
15-Jan-22 12:01 43.593306 -115.941385 309 15998ft 263kts
15-Jan-22 12:02 43.644458 -116.014557 310 15999ft 265kts
15-Jan-22 12:03 43.703367 -116.097823 311 16581ft 349kts
15-Jan-22 12:04 43.772434 -116.195441 311 17613ft 357kts
15-Jan-22 12:05 43.841504 -116.293498 312 20276ft 368kts
15-Jan-22 12:06 43.914018 -116.396820 312 23393ft 384kts
15-Jan-22 12:07 43.989419 -116.504662 313 26242ft 399kts
15-Jan-22 12:08 44.067909 -116.617369 313 28924ft 414kts
15-Jan-22 12:09 44.149361 -116.734803 313 31404ft 431kts
15-Jan-22 12:10 44.235159 -116.853841 315 34009ft 438kts
15-Jan-22 12:11 44.321861 -116.972956 315 34603ft 431kts
15-Jan-22 12:12 44.407537 -117.091231 315 34604ft 435kts
15-Jan-22 12:13 44.493346 -117.210212 315 34570ft 435kts
15-Jan-22 12:14 44.579116 -117.329663 315 34513ft 436kts
15-Jan-22 12:15 44.664813 -117.449529 315 34489ft 436kts
15-Jan-22 12:16 44.750524 -117.569953 315 34489ft 436kts
15-Jan-22 12:17 44.835754 -117.690239 314 34494ft 436kts
15-Jan-22 12:18 44.921240 -117.811419 314 34492ft 435kts
15-Jan-22 12:19 45.006028 -117.932116 314 34480ft 432kts
15-Jan-22 12:20 45.089560 -118.051572 313 34462ft 424kts
15-Jan-22 12:21 45.171901 -118.169874 312 34459ft 422kts
15-Jan-22 12:22 45.254063 -118.288430 312 34456ft 422kts
15-Jan-22 12:23 45.336135 -118.407362 312 34441ft 422kts
15-Jan-22 12:24 45.417836 -118.526286 312 34417ft 422kts
15-Jan-22 12:25 45.499687 -118.645966 312 34405ft 422kts
15-Jan-22 12:26 45.581190 -118.765671 312 34413ft 422kts
15-Jan-22 12:27 45.662568 -118.885720 312 34412ft 423kts
15-Jan-22 12:28 45.741376 -119.011185 309 34410ft 425kts
15-Jan-22 12:29 45.817849 -119.140316 309 34442ft 425kts
15-Jan-22 12:30 45.893909 -119.269421 309 34469ft 425kts
15-Jan-22 12:31 45.970115 -119.399385 309 34469ft 425kts
15-Jan-22 12:32 46.046108 -119.529594 309 34468ft 425kts
15-Jan-22 12:33 46.119693 -119.656238 308 34475ft 400kts
15-Jan-22 12:34 46.191504 -119.780435 308 34049ft 407kts
15-Jan-22 12:35 46.263530 -119.905534 308 32213ft 408kts
15-Jan-22 12:36 46.335649 -120.031375 308 30381ft 405kts
15-Jan-22 12:37 46.406407 -120.155419 307 28574ft 394kts
15-Jan-22 12:38 46.475030 -120.276252 307 26828ft 384kts
15-Jan-22 12:39 46.541785 -120.394299 307 25138ft 375kts
15-Jan-22 12:40 46.603382 -120.513649 303 24447ft 371kts
15-Jan-22 12:41 46.662123 -120.636982 303 24443ft 370kts
15-Jan-22 12:42 46.720896 -120.760634 302 24449ft 370kts
15-Jan-22 12:43 46.779552 -120.884576 302 23729ft 369kts
15-Jan-22 12:44 46.836981 -121.006481 302 22840ft 367kts
15-Jan-22 12:45 46.893476 -121.126910 302 21177ft 357kts
15-Jan-22 12:46 46.948584 -121.244910 302 19607ft 345kts
15-Jan-22 12:47 47.001785 -121.359318 302 18066ft 338kts
15-Jan-22 12:48 47.053705 -121.471406 303 16282ft 324kts
15-Jan-22 12:49 47.101820 -121.575696 302 16029ft 304kts
15-Jan-22 12:50 47.148759 -121.677836 302 16037ft 301kts
15-Jan-22 12:51 47.195515 -121.779957 302 16035ft 301kts
15-Jan-22 12:52 47.241350 -121.880369 302 15331ft 274kts
15-Jan-22 12:53 47.282018 -121.969860 302 11135ft 259kts
15-Jan-22 12:54 47.316076 -122.044876 303 9979ft 176kts
15-Jan-22 12:55 47.347740 -122.114887 303 10015ft 215kts
15-Jan-22 12:56 47.399992 -122.147644 354 8728ft 222kts
15-Jan-22 12:57 47.460952 -122.145208 359 7017ft 213kts
15-Jan-22 12:58 47.518433 -122.143038 359 6112ft 205kts
15-Jan-22 13:00 47.575534 -122.141187 359 6016ft 190kts
15-Jan-22 13:01 47.625770 -122.139348 359 6018ft 180kts
15-Jan-22 13:02 47.675993 -122.137375 359 6017ft 180kts
15-Jan-22 13:03 47.726185 -122.135489 359 6010ft 181kts
15-Jan-22 13:04 47.775803 -122.139243 326 5931ft 181kts
15-Jan-22 13:05 47.785765 -122.209850 275 5010ft 179kts
15-Jan-22 13:06 47.784195 -122.283100 241 4973ft 183kts
15-Jan-22 13:07 47.736034 -122.304961 182 4999ft 193kts
15-Jan-22 13:08 47.682316 -122.305858 182 4709ft 193kts
15-Jan-22 13:09 47.631915 -122.306323 181 3737ft 177kts
15-Jan-22 13:10 47.584169 -122.306685 181 2779ft 158kts
15-Jan-22 13:11 47.543653 -122.307108 180 1990ft 142kts
15-Jan-22 13:12 47.504558 -122.307449 180 1254ft 139kts
15-Jan-22 13:13 47.466256 -122.307763 180 520ft 136kts
15-Jan-22 13:14 47.445596 -122.307894 179 395ft 17kts
15-Jan-22 13:15 47.443495 -122.306719 94 389ft 0kts
15-Jan-22 13:16 47.443454 -122.305910 94 391ft 2kts
15-Jan-22 13:17 47.443144 -122.305664 169 390ft 0kts

Navigation Log

Ident Type
Flight plan parsing failed, navigation log unavailable